Time;durP1;ratioP1;P1;durP2;ratioP2;P2;SDS_P1;SDS_P2;PMS_P1;PMS_P2;Temp;Humidity;BMP_temperature;BMP_pressure;BME280_temperature;BME280_humidity;BME280_pressure;Samples;Min_cycle;Max_cycle;Signal;HPM_P1;HPM_P2
2021/03/30 00:00:19;;;;;;;10.20;4.28;;;9.70;52.20;;;;;;5055917;28;20490;-86
2021/03/30 00:02:44;;;;;;;8.52;3.90;;;9.70;52.10;;;;;;5055362;28;20024;-86
2021/03/30 00:05:10;;;;;;;7.40;3.90;;;9.70;52.20;;;;;;5055599;28;20025;-86
2021/03/30 00:07:36;;;;;;;7.68;4.38;;;9.60;52.10;;;;;;5056037;28;20051;-86
2021/03/30 00:10:05;;;;;;;12.13;4.90;;;9.50;52.10;;;;;;5055938;28;20482;-86
2021/03/30 00:12:30;;;;;;;8.98;4.50;;;9.50;52.30;;;;;;5055447;28;20036;-86
2021/03/30 00:14:56;;;;;;;9.90;4.68;;;9.40;52.40;;;;;;5034985;28;20032;-86
2021/03/30 00:17:21;;;;;;;7.65;4.40;;;9.40;52.50;;;;;;5049573;28;20097;-86
2021/03/30 00:19:47;;;;;;;13.48;4.75;;;9.30;52.40;;;;;;5047673;28;20379;-87
2021/03/30 00:22:12;;;;;;;10.52;5.80;;;9.20;52.40;;;;;;5055069;28;20036;-86
2021/03/30 00:24:38;;;;;;;10.27;4.82;;;9.20;52.60;;;;;;5055849;28;20017;-86
2021/03/30 00:27:04;;;;;;;10.70;5.07;;;9.10;52.70;;;;;;5073693;28;20386;-86
2021/03/30 00:29:30;;;;;;;11.95;5.82;;;9.00;52.80;;;;;;5055941;28;20081;-86
2021/03/30 00:31:55;;;;;;;10.38;5.95;;;8.90;53.00;;;;;;5056166;28;20033;-86
2021/03/30 00:34:21;;;;;;;9.82;5.18;;;8.90;53.00;;;;;;5055386;28;20061;-86
2021/03/30 00:36:46;;;;;;;9.60;5.32;;;8.80;53.10;;;;;;5055755;28;20021;-86
2021/03/30 00:39:12;;;;;;;11.23;5.35;;;8.80;53.50;;;;;;5054915;28;20093;-86
2021/03/30 00:41:43;;;;;;;12.43;5.53;;;8.70;53.20;;;;;;5070729;28;20043;-86
2021/03/30 00:44:11;;;;;;;13.50;5.87;;;8.70;53.20;;;;;;5055673;28;20025;-86
2021/03/30 00:46:38;;;;;;;10.77;5.13;;;8.50;53.10;;;;;;5058854;28;20267;-87
2021/03/30 00:49:04;;;;;;;13.70;5.18;;;8.40;53.40;;;;;;5051935;28;20483;-87
2021/03/30 00:51:29;;;;;;;9.05;4.10;;;8.30;53.60;;;;;;5059418;28;20043;-87
2021/03/30 00:53:55;;;;;;;14.35;3.95;;;8.20;53.70;;;;;;5058146;28;20367;-87
2021/03/30 00:56:21;;;;;;;6.72;3.55;;;8.10;53.50;;;;;;5057929;28;20024;-86
2021/03/30 00:58:48;;;;;;;7.35;3.20;;;8.00;53.50;;;;;;5057359;28;20024;-86
2021/03/30 01:01:14;;;;;;;6.65;3.22;;;7.80;53.80;;;;;;5056787;28;20029;-87
2021/03/30 01:03:40;;;;;;;4.43;3.33;;;7.80;54.50;;;;;;5074522;28;20035;-87
2021/03/30 01:06:05;;;;;;;5.95;3.30;;;7.80;55.10;;;;;;5073615;28;20035;-86
2021/03/30 01:08:46;;;;;;;9.52;3.35;;;7.90;55.40;;;;;;5055439;28;20055;-86
2021/03/30 01:11:35;;;;;;;7.00;3.13;;;8.00;55.00;;;;;;5052824;28;20096;-86
2021/03/30 01:14:01;;;;;;;6.07;3.03;;;8.00;54.70;;;;;;5044983;28;20391;-87
2021/03/30 01:16:40;;;;;;;7.60;3.10;;;8.00;54.60;;;;;;5055572;28;20032;-86
2021/03/30 01:19:09;;;;;;;5.45;3.10;;;8.00;55.00;;;;;;5055053;28;20078;-86
2021/03/30 01:22:00;;;;;;;7.63;3.28;;;8.00;55.40;;;;;;5055832;28;20031;-87
2021/03/30 01:24:37;;;;;;;5.78;2.95;;;8.10;55.80;;;;;;5055174;28;20024;-86
2021/03/30 01:27:22;;;;;;;6.63;2.83;;;8.10;55.90;;;;;;5055427;28;20028;-86
2021/03/30 01:29:50;;;;;;;4.25;2.72;;;8.20;55.40;;;;;;5059359;28;20115;-86
2021/03/30 01:32:19;;;;;;;5.65;2.80;;;8.10;54.90;;;;;;5059269;28;20032;-86
2021/03/30 01:34:46;;;;;;;5.00;3.00;;;8.10;55.00;;;;;;5058964;28;20027;-86
2021/03/30 01:37:14;;;;;;;4.28;2.70;;;8.10;55.20;;;;;;5076859;28;20486;-86
2021/03/30 01:39:42;;;;;;;5.70;2.70;;;8.00;55.50;;;;;;5065838;28;20026;-86
2021/03/30 01:42:10;;;;;;;4.63;2.85;;;8.10;55.40;;;;;;5060057;28;20119;-87
2021/03/30 01:44:38;;;;;;;5.60;2.90;;;8.00;55.20;;;;;;5048520;28;20029;-86
2021/03/30 01:47:03;;;;;;;5.82;3.10;;;8.00;55.20;;;;;;5050823;28;20486;-86
2021/03/30 01:49:30;;;;;;;6.82;2.90;;;7.90;55.20;;;;;;5059445;28;20129;-86
2021/03/30 01:51:57;;;;;;;5.00;3.10;;;7.80;55.20;;;;;;5077605;28;20192;-87
2021/03/30 01:54:24;;;;;;;5.35;2.75;;;7.80;55.30;;;;;;5076972;28;20032;-86
2021/03/30 01:56:54;;;;;;;4.18;3.00;;;7.70;55.20;;;;;;5077399;28;20077;-86
2021/03/30 01:59:20;;;;;;;6.05;3.15;;;7.70;55.30;;;;;;5058985;28;20025;-86
2021/03/30 02:01:47;;;;;;;5.57;3.25;;;7.60;55.30;;;;;;5059356;28;20024;-86
2021/03/30 02:04:14;;;;;;;5.07;3.65;;;7.60;55.30;;;;;;5057723;28;20029;-86
2021/03/30 02:06:44;;;;;;;6.03;3.17;;;7.50;55.40;;;;;;5075506;28;20109;-86
2021/03/30 02:09:16;;;;;;;8.15;3.25;;;7.40;55.40;;;;;;5075741;28;20119;-86
2021/03/30 02:11:46;;;;;;;6.82;3.10;;;7.40;55.50;;;;;;5058080;28;20094;-86
2021/03/30 02:14:13;;;;;;;4.53;3.17;;;7.40;55.90;;;;;;5046529;28;20170;-86
2021/03/30 02:17:34;;;;;;;6.65;3.10;;;7.40;55.90;;;;;;5039389;28;20025;-86
2021/03/30 02:20:16;;;;;;;15.88;3.05;;;7.40;55.80;;;;;;5051055;28;20024;-86
2021/03/30 02:22:50;;;;;;;5.15;3.20;;;7.30;55.60;;;;;;5057117;28;20064;-85
2021/03/30 02:25:17;;;;;;;6.25;3.13;;;7.30;55.60;;;;;;5057408;28;20048;-86
2021/03/30 02:27:43;;;;;;;6.15;3.05;;;7.30;55.70;;;;;;5055907;28;20085;-86
2021/03/30 02:30:13;;;;;;;4.88;3.03;;;7.20;55.80;;;;;;5058451;28;20054;-85
2021/03/30 02:32:41;;;;;;;5.70;2.92;;;7.20;56.00;;;;;;5076765;28;20029;-85
2021/03/30 02:35:08;;;;;;;7.18;3.38;;;7.10;55.90;;;;;;5077717;28;20048;-85
2021/03/30 02:37:35;;;;;;;4.43;2.90;;;7.10;55.90;;;;;;5058664;28;20028;-86
2021/03/30 02:40:03;;;;;;;6.95;3.05;;;7.00;55.90;;;;;;5078092;28;20036;-85
2021/03/30 02:42:29;;;;;;;5.13;3.05;;;6.90;56.10;;;;;;5060224;28;20449;-84
2021/03/30 02:44:56;;;;;;;6.72;2.88;;;6.90;56.20;;;;;;5045745;28;20045;-86
2021/03/30 02:47:23;;;;;;;4.72;3.10;;;6.90;56.50;;;;;;5057616;28;20020;-86
2021/03/30 02:49:50;;;;;;;6.68;3.58;;;6.90;56.50;;;;;;5057172;28;20118;-86
2021/03/30 02:52:17;;;;;;;6.18;3.03;;;6.90;56.20;;;;;;5057172;28;20020;-86
2021/03/30 02:54:43;;;;;;;5.18;3.28;;;6.80;56.00;;;;;;5057511;28;20033;-86
2021/03/30 02:57:09;;;;;;;6.47;3.30;;;6.60;56.10;;;;;;5074940;28;20383;-86
2021/03/30 02:59:36;;;;;;;9.00;3.75;;;6.50;56.30;;;;;;5057187;28;20050;-86
2021/03/30 03:02:02;;;;;;;4.30;3.25;;;6.50;56.50;;;;;;5074774;28;20474;-86
2021/03/30 03:04:29;;;;;;;7.30;3.50;;;6.40;56.80;;;;;;5056913;28;20042;-86
2021/03/30 03:06:56;;;;;;;5.43;3.20;;;6.40;57.00;;;;;;5057186;28;20324;-86
2021/03/30 03:09:21;;;;;;;6.60;3.33;;;6.40;57.00;;;;;;5056648;28;20020;-86
2021/03/30 03:11:49;;;;;;;5.40;3.08;;;6.40;56.90;;;;;;5057093;28;20024;-86
2021/03/30 03:14:17;;;;;;;5.55;3.25;;;6.40;57.10;;;;;;5044792;28;20056;-86
2021/03/30 03:16:45;;;;;;;7.82;3.28;;;6.40;57.20;;;;;;5068366;28;20048;-86
2021/03/30 03:19:11;;;;;;;5.85;3.17;;;6.40;57.40;;;;;;5062702;28;20071;-87
2021/03/30 03:21:38;;;;;;;4.40;2.92;;;6.40;57.20;;;;;;5061136;28;20116;-86
2021/03/30 03:24:05;;;;;;;7.55;3.55;;;6.40;57.20;;;;;;5076852;28;20558;-86
2021/03/30 03:26:32;;;;;;;7.13;3.25;;;6.40;57.90;;;;;;5058752;28;20027;-86
2021/03/30 03:28:58;;;;;;;6.50;3.03;;;6.40;57.40;;;;;;5058557;28;20117;-86
2021/03/30 03:31:29;;;;;;;7.15;2.92;;;6.40;57.30;;;;;;5058560;28;20035;-86
2021/03/30 03:34:03;;;;;;;4.75;2.90;;;6.30;57.40;;;;;;5057012;28;20054;-86
2021/03/30 03:36:41;;;;;;;9.20;3.30;;;6.30;57.40;;;;;;5057326;28;20121;-86
2021/03/30 03:39:09;;;;;;;5.65;3.20;;;6.30;58.00;;;;;;5056039;28;20036;-86
2021/03/30 03:41:34;;;;;;;5.38;3.30;;;6.30;57.60;;;;;;5069965;28;20040;-86
2021/03/30 03:44:00;;;;;;;8.20;3.17;;;6.30;57.70;;;;;;5048636;28;20029;-86
2021/03/30 03:46:26;;;;;;;8.88;2.88;;;6.30;57.40;;;;;;5056082;28;20024;-86
2021/03/30 03:48:52;;;;;;;6.32;3.15;;;6.30;57.40;;;;;;5057145;28;20028;-86
2021/03/30 03:51:19;;;;;;;7.28;3.03;;;6.20;57.60;;;;;;5073302;28;20025;-86
2021/03/30 03:53:50;;;;;;;6.00;3.05;;;6.20;57.90;;;;;;5056729;28;20020;-86
2021/03/30 03:56:32;;;;;;;6.03;3.60;;;6.10;57.80;;;;;;5056353;28;20032;-86
2021/03/30 03:59:02;;;;;;;4.88;3.10;;;6.10;57.80;;;;;;5056829;28;20119;-86
2021/03/30 04:01:46;;;;;;;4.70;2.95;;;6.00;57.60;;;;;;5057404;28;20364;-86
2021/03/30 04:04:33;;;;;;;6.35;3.03;;;5.90;57.80;;;;;;5056024;28;20028;-85
2021/03/30 04:07:03;;;;;;;3.65;3.03;;;5.90;57.90;;;;;;5057075;28;20021;-86
2021/03/30 04:09:32;;;;;;;6.07;3.33;;;5.80;57.90;;;;;;5056382;28;20078;-86
2021/03/30 04:11:59;;;;;;;5.05;3.33;;;5.80;58.00;;;;;;5056264;28;20016;-86
2021/03/30 04:14:25;;;;;;;6.45;3.13;;;5.80;58.10;;;;;;5055594;28;20020;-86
2021/03/30 04:16:51;;;;;;;7.78;3.35;;;5.80;58.10;;;;;;5056821;28;20020;-86
2021/03/30 04:19:17;;;;;;;4.25;2.95;;;5.80;58.20;;;;;;5056829;28;20047;-86
2021/03/30 04:21:43;;;;;;;5.68;3.15;;;5.80;58.20;;;;;;5056080;28;20423;-86
2021/03/30 04:24:09;;;;;;;6.82;3.40;;;5.80;58.20;;;;;;5056019;28;20032;-86
2021/03/30 04:26:38;;;;;;;4.72;3.30;;;5.80;58.20;;;;;;5073590;28;20055;-86
2021/03/30 04:29:05;;;;;;;6.30;3.08;;;5.80;58.40;;;;;;5073703;28;20029;-86
2021/03/30 04:31:32;;;;;;;7.50;3.10;;;5.80;58.20;;;;;;5056413;28;20029;-86
2021/03/30 04:33:58;;;;;;;4.05;3.05;;;5.80;58.50;;;;;;5056154;28;20035;-86
2021/03/30 04:36:24;;;;;;;6.25;2.70;;;5.80;58.60;;;;;;5056468;28;20028;-86
2021/03/30 04:38:49;;;;;;;4.75;3.08;;;5.80;58.70;;;;;;5057712;28;20143;-86
2021/03/30 04:41:15;;;;;;;4.38;2.75;;;5.90;58.70;;;;;;5055507;28;20075;-86
2021/03/30 04:43:40;;;;;;;4.93;3.22;;;5.90;58.40;;;;;;5055680;28;20123;-86
2021/03/30 04:46:07;;;;;;;7.53;3.40;;;5.80;58.20;;;;;;5038022;28;20029;-86
2021/03/30 04:48:33;;;;;;;5.82;3.38;;;5.80;58.50;;;;;;5048512;28;20066;-86
2021/03/30 04:50:59;;;;;;;5.95;3.83;;;5.80;58.60;;;;;;5057089;28;20020;-86
2021/03/30 04:53:24;;;;;;;6.78;3.83;;;5.80;58.60;;;;;;5097118;22;20429;-90
2021/03/30 04:55:50;;;;;;;5.93;3.90;;;5.80;58.60;;;;;;5054367;28;20024;-90
2021/03/30 04:58:15;;;;;;;6.10;3.50;;;5.70;58.50;;;;;;5054567;28;20028;-89
2021/03/30 05:00:41;;;;;;;7.05;2.92;;;5.60;58.40;;;;;;5054528;28;20391;-90
2021/03/30 05:03:07;;;;;;;8.32;3.30;;;5.60;58.50;;;;;;5058321;28;20024;-89
2021/03/30 05:05:32;;;;;;;5.93;2.80;;;5.60;58.50;;;;;;5059285;28;20107;-90
2021/03/30 05:07:58;;;;;;;7.30;2.90;;;5.50;58.50;;;;;;5059211;28;20051;-90
2021/03/30 05:10:25;;;;;;;4.50;2.95;;;5.40;58.50;;;;;;5059422;28;20059;-87
2021/03/30 05:12:51;;;;;;;5.80;3.22;;;5.30;58.80;;;;;;5066562;28;20080;-89
2021/03/30 05:15:17;;;;;;;6.90;3.40;;;5.40;59.00;;;;;;5083745;28;20043;-90
2021/03/30 05:17:43;;;;;;;5.20;3.00;;;5.40;58.80;;;;;;5054853;28;20024;-91
2021/03/30 05:20:09;;;;;;;5.25;3.40;;;5.30;58.70;;;;;;5046639;28;20021;-90
2021/03/30 05:22:34;;;;;;;7.80;3.20;;;5.40;58.90;;;;;;5057207;28;20032;-90
2021/03/30 05:25:01;;;;;;;10.93;4.00;;;5.40;59.20;;;;;;5074883;28;20491;-90
2021/03/30 05:27:27;;;;;;;8.07;3.50;;;5.40;59.30;;;;;;5050455;28;20367;-90
2021/03/30 05:29:53;;;;;;;6.60;3.70;;;5.40;59.30;;;;;;5056995;28;20020;-90
2021/03/30 05:32:19;;;;;;;9.10;3.38;;;5.50;59.40;;;;;;5057482;28;20036;-90
2021/03/30 05:34:47;;;;;;;6.35;3.45;;;5.50;59.20;;;;;;5075112;28;20024;-90
2021/03/30 05:37:12;;;;;;;8.02;3.08;;;5.50;59.20;;;;;;5057381;28;20066;-90
2021/03/30 05:39:38;;;;;;;8.05;3.20;;;5.50;59.10;;;;;;5054112;28;20443;-90
2021/03/30 05:42:05;;;;;;;6.40;3.35;;;5.60;59.20;;;;;;5055244;28;20063;-90
2021/03/30 05:44:32;;;;;;;7.40;3.40;;;5.60;59.20;;;;;;5074887;28;20052;-91
2021/03/30 05:47:10;;;;;;;6.90;3.40;;;5.50;59.00;;;;;;5057440;28;20339;-90
2021/03/30 05:49:41;;;;;;;6.70;2.88;;;5.60;59.00;;;;;;5057487;28;20466;-90
2021/03/30 05:52:21;;;;;;;7.32;3.47;;;5.50;58.90;;;;;;5056899;28;20024;-90
2021/03/30 05:54:48;;;;;;;7.68;3.70;;;5.40;59.00;;;;;;5057563;28;20063;-91
2021/03/30 05:57:16;;;;;;;6.40;4.13;;;5.40;59.20;;;;;;5057625;28;20189;-90
2021/03/30 05:59:50;;;;;;;7.25;3.83;;;5.40;60.10;;;;;;5057633;28;20052;-91
2021/03/30 06:02:29;;;;;;;8.00;4.72;;;5.40;59.60;;;;;;5057586;28;20025;-90
2021/03/30 06:04:56;;;;;;;10.85;5.05;;;5.50;59.80;;;;;;5038215;28;20068;-91
2021/03/30 06:07:22;;;;;;;9.00;4.60;;;5.50;59.60;;;;;;5037819;28;20082;-92
2021/03/30 06:09:48;;;;;;;14.85;5.68;;;5.60;59.70;;;;;;5037981;28;20461;-92
2021/03/30 06:12:17;;;;;;;7.60;4.78;;;5.70;59.70;;;;;;5037395;28;20106;-92
2021/03/30 06:14:48;;;;;;;10.65;4.28;;;5.70;59.70;;;;;;5036920;28;20036;-92
2021/03/30 06:17:15;;;;;;;9.93;4.28;;;5.80;59.80;;;;;;5038140;28;20043;-91
2021/03/30 06:19:47;;;;;;;9.40;3.60;;;5.90;59.60;;;;;;5037490;28;20040;-91
2021/03/30 06:22:12;;;;;;;11.70;3.87;;;5.90;59.90;;;;;;5037829;28;20108;-91
2021/03/30 06:24:38;;;;;;;9.50;4.38;;;6.10;59.60;;;;;;5037263;28;20475;-91
2021/03/30 06:27:04;;;;;;;5.72;3.67;;;6.10;59.50;;;;;;5037468;28;20444;-91
2021/03/30 06:29:35;;;;;;;6.55;3.67;;;6.20;59.50;;;;;;5042393;28;20025;-90
2021/03/30 06:32:08;;;;;;;9.35;4.05;;;6.30;59.50;;;;;;5041368;28;20027;-90
2021/03/30 06:34:34;;;;;;;8.15;3.80;;;6.40;59.40;;;;;;5038241;28;20159;-90
2021/03/30 06:37:00;;;;;;;15.15;3.95;;;6.50;59.30;;;;;;5046495;28;20103;-91
2021/03/30 06:39:37;;;;;;;6.78;3.50;;;6.60;59.30;;;;;;5056979;28;20067;-91
2021/03/30 06:44:38;;;;;;;8.75;3.55;;;6.80;59.20;;;;;;5074556;28;20070;-91
2021/03/30 06:47:18;;;;;;;14.67;3.70;;;6.90;59.20;;;;;;5057211;28;20016;-91
2021/03/30 06:49:58;;;;;;;10.07;4.40;;;7.10;58.90;;;;;;5056773;28;20016;-91
2021/03/30 06:52:35;;;;;;;9.43;4.65;;;7.30;58.80;;;;;;5056304;28;20437;-91
2021/03/30 06:55:06;;;;;;;11.05;4.40;;;7.50;58.70;;;;;;5056526;28;20032;-91
2021/03/30 06:57:41;;;;;;;10.18;4.05;;;7.70;58.60;;;;;;5056365;28;20032;-90
2021/03/30 07:00:10;;;;;;;21.45;5.70;;;8.00;58.60;;;;;;5055992;28;20433;-91
2021/03/30 07:02:41;;;;;;;15.60;5.32;;;8.30;58.20;;;;;;5056180;28;20502;-91
2021/03/30 07:05:19;;;;;;;13.38;4.82;;;8.60;58.00;;;;;;5056385;28;20031;-91
2021/03/30 07:07:45;;;;;;;13.73;4.70;;;8.90;57.70;;;;;;5056352;28;20023;-90
2021/03/30 07:10:12;;;;;;;11.15;4.70;;;9.20;57.40;;;;;;5056273;28;20077;-90
2021/03/30 07:12:37;;;;;;;10.15;4.30;;;9.40;57.20;;;;;;5056153;28;20024;-91
2021/03/30 07:15:04;;;;;;;8.57;4.40;;;9.80;56.80;;;;;;5056160;28;20025;-90
2021/03/30 07:17:36;;;;;;;7.65;3.78;;;10.10;56.60;;;;;;5056310;28;20119;-90
2021/03/30 07:20:04;;;;;;;7.45;3.42;;;10.40;56.50;;;;;;5055763;28;20041;-90
2021/03/30 07:22:33;;;;;;;13.27;4.10;;;10.80;56.20;;;;;;5056307;28;20035;-91
2021/03/30 07:25:05;;;;;;;7.93;3.80;;;11.10;55.90;;;;;;5055725;28;20109;-91
2021/03/30 07:27:41;;;;;;;6.67;3.63;;;11.40;55.60;;;;;;5055645;28;20051;-91
2021/03/30 07:30:08;;;;;;;9.90;3.50;;;11.70;55.30;;;;;;5055853;28;20346;-90
2021/03/30 07:32:57;;;;;;;11.40;3.75;;;12.00;55.10;;;;;;5073160;28;20063;-90
2021/03/30 07:35:23;;;;;;;7.35;3.42;;;12.30;54.90;;;;;;5078291;28;20034;-90
2021/03/30 07:38:08;;;;;;;7.35;3.67;;;12.70;54.40;;;;;;5054450;28;20135;-90
2021/03/30 07:40:39;;;;;;;7.18;3.50;;;13.00;53.90;;;;;;5055084;28;20258;-91
2021/03/30 07:43:11;;;;;;;11.27;3.58;;;13.30;53.60;;;;;;5064589;28;20111;-91
2021/03/30 07:45:42;;;;;;;6.55;3.42;;;13.60;53.10;;;;;;5056210;28;20035;-91
2021/03/30 07:48:13;;;;;;;7.07;3.60;;;13.90;53.40;;;;;;5054618;28;20029;-91
2021/03/30 07:51:07;;;;;;;5.70;2.80;;;14.20;52.80;;;;;;5052691;28;20032;-91
2021/03/30 07:54:15;;;;;;;7.88;3.22;;;14.60;52.40;;;;;;5055400;28;20033;-90
2021/03/30 07:56:48;;;;;;;4.07;2.63;;;15.00;52.10;;;;;;5055398;28;20671;-91
2021/03/30 07:59:48;;;;;;;5.68;2.90;;;15.50;51.50;;;;;;5054925;28;20028;-92
2021/03/30 08:02:33;;;;;;;8.25;3.13;;;15.90;51.00;;;;;;5044948;28;20037;-91
2021/03/30 08:05:25;;;;;;;5.95;3.00;;;16.40;50.50;;;;;;5035075;28;20023;-91
2021/03/30 08:07:56;;;;;;;4.73;2.70;;;16.80;49.80;;;;;;5034746;28;20079;-91
2021/03/30 08:10:24;;;;;;;8.60;3.13;;;17.20;49.20;;;;;;5034681;28;20128;-88
2021/03/30 08:12:50;;;;;;;8.55;2.88;;;17.60;48.70;;;;;;5034643;28;20029;-88
2021/03/30 08:15:45;;;;;;;6.65;3.10;;;18.00;48.20;;;;;;5041017;28;20024;-89
2021/03/30 08:18:12;;;;;;;5.50;3.20;;;18.50;47.90;;;;;;5041876;28;20044;-89
2021/03/30 08:21:00;;;;;;;7.70;3.50;;;18.90;47.10;;;;;;5054842;28;20028;-88
2021/03/30 08:23:28;;;;;;;6.53;3.50;;;19.50;46.20;;;;;;5054778;28;20496;-89
2021/03/30 08:26:18;;;;;;;6.80;3.60;;;20.00;45.70;;;;;;5054750;28;20028;-89
2021/03/30 08:29:02;;;;;;;5.82;3.35;;;20.60;45.20;;;;;;5054807;28;20448;-88
2021/03/30 08:31:37;;;;;;;4.07;3.33;;;21.20;44.20;;;;;;5054315;28;20110;-89
2021/03/30 08:34:23;;;;;;;9.68;3.33;;;21.70;43.60;;;;;;5054133;28;20025;-89
2021/03/30 08:36:57;;;;;;;8.63;3.75;;;22.20;42.70;;;;;;5056406;28;20096;-89
2021/03/30 08:39:25;;;;;;;6.72;3.58;;;22.60;41.90;;;;;;5038788;28;20035;-91
2021/03/30 08:41:58;;;;;;;12.50;4.47;;;22.80;41.00;;;;;;5054145;28;20379;-88
2021/03/30 08:44:56;;;;;;;8.90;4.50;;;23.10;40.70;;;;;;5052507;28;20037;-88
2021/03/30 08:47:40;;;;;;;9.43;3.80;;;23.50;39.90;;;;;;5050996;28;20021;-89
2021/03/30 08:50:25;;;;;;;7.43;3.90;;;24.00;39.40;;;;;;5034184;28;20017;-89
2021/03/30 08:52:52;;;;;;;10.65;3.05;;;24.40;38.40;;;;;;5034551;28;20040;-89
2021/03/30 08:55:43;;;;;;;13.68;3.75;;;24.80;38.20;;;;;;5034510;28;20032;-89
2021/03/30 08:58:10;;;;;;;7.35;3.42;;;25.30;37.50;;;;;;5036021;28;20051;-89
2021/03/30 09:00:36;;;;;;;8.77;3.90;;;25.80;36.60;;;;;;5034164;28;20029;-89
2021/03/30 09:03:05;;;;;;;8.00;3.70;;;26.20;36.00;;;;;;5052010;28;20028;-89
2021/03/30 09:05:38;;;;;;;9.50;4.10;;;26.40;35.10;;;;;;5034077;28;20036;-89
2021/03/30 09:08:05;;;;;;;9.30;4.20;;;26.80;34.40;;;;;;5047314;28;20024;-89
2021/03/30 09:10:31;;;;;;;7.32;4.32;;;27.20;34.20;;;;;;5059762;28;20019;-89
2021/03/30 09:13:14;;;;;;;7.95;3.65;;;27.50;33.70;;;;;;5057105;28;20032;-89
2021/03/30 09:15:40;;;;;;;15.23;4.35;;;28.00;33.30;;;;;;5058859;28;20103;-90
2021/03/30 09:18:06;;;;;;;9.88;4.35;;;28.30;32.90;;;;;;5056522;28;20495;-90
2021/03/30 09:20:37;;;;;;;9.00;3.92;;;28.70;32.40;;;;;;5053645;28;20064;-92
2021/03/30 09:23:17;;;;;;;11.93;3.97;;;28.80;31.90;;;;;;5053502;28;20020;-90
2021/03/30 09:25:46;;;;;;;10.93;4.30;;;29.10;31.50;;;;;;5054179;28;20478;-89
2021/03/30 09:28:23;;;;;;;9.02;4.30;;;29.30;31.30;;;;;;5038928;28;20429;-91
2021/03/30 09:30:50;;;;;;;14.13;5.18;;;29.60;31.00;;;;;;5033876;28;20031;-89
2021/03/30 09:33:16;;;;;;;11.63;4.90;;;29.80;31.00;;;;;;5051822;28;20033;-90
2021/03/30 09:35:41;;;;;;;12.77;4.63;;;30.00;30.80;;;;;;5065590;28;20475;-92
2021/03/30 09:38:07;;;;;;;10.43;4.90;;;30.00;31.10;;;;;;5054246;28;20020;-91
2021/03/30 09:40:40;;;;;;;8.32;4.30;;;30.00;30.90;;;;;;5054198;28;20083;-92
2021/03/30 09:43:07;;;;;;;9.07;4.60;;;29.80;30.90;;;;;;5053869;28;20074;-92
2021/03/30 09:45:36;;;;;;;12.65;4.78;;;29.60;31.10;;;;;;5054299;28;20520;-92
2021/03/30 09:48:05;;;;;;;14.63;5.28;;;29.20;31.10;;;;;;5054533;28;20457;-91
2021/03/30 09:50:31;;;;;;;8.57;4.80;;;28.60;30.50;;;;;;5057772;28;20024;-91
2021/03/30 09:53:07;;;;;;;9.77;4.80;;;28.00;31.90;;;;;;5057401;28;20397;-92
2021/03/30 09:55:42;;;;;;;10.10;4.72;;;27.60;32.10;;;;;;5057408;28;20394;-92
2021/03/30 09:58:13;;;;;;;12.35;4.53;;;27.20;32.40;;;;;;5057365;28;20048;-89
2021/03/30 10:00:41;;;;;;;10.10;4.88;;;26.70;32.10;;;;;;5057374;28;20040;-89
2021/03/30 10:03:09;;;;;;;11.05;4.60;;;26.30;32.80;;;;;;5052036;28;20553;-90
2021/03/30 10:05:36;;;;;;;8.98;4.47;;;25.90;33.20;;;;;;5057734;28;20088;-89
2021/03/30 10:08:03;;;;;;;10.05;4.82;;;25.80;33.50;;;;;;5056656;28;20017;-89
2021/03/30 10:10:44;;;;;;;9.82;5.05;;;25.60;33.50;;;;;;5057154;28;20475;-87
2021/03/30 10:13:39;;;;;;;13.13;4.72;;;25.70;33.60;;;;;;5041652;28;20518;-89
2021/03/30 10:16:07;;;;;;;9.95;5.10;;;25.70;33.50;;;;;;5036743;28;20119;-89
2021/03/30 10:18:37;;;;;;;9.00;4.50;;;25.80;33.70;;;;;;5046197;28;20371;-90
2021/03/30 10:21:16;;;;;;;7.95;4.60;;;25.80;33.20;;;;;;5074492;28;20021;-90
2021/03/30 10:23:47;;;;;;;9.05;4.68;;;25.60;32.90;;;;;;5074302;28;20039;-90
2021/03/30 10:26:15;;;;;;;9.73;5.03;;;25.60;33.00;;;;;;5070539;28;20526;-91
2021/03/30 10:28:49;;;;;;;10.77;4.30;;;25.70;33.50;;;;;;5056868;28;20036;-91
2021/03/30 10:31:27;;;;;;;10.52;4.70;;;25.70;32.90;;;;;;5062781;28;20032;-91
2021/03/30 10:33:54;;;;;;;7.47;4.03;;;25.70;32.40;;;;;;5066034;28;20025;-91
2021/03/30 10:36:20;;;;;;;9.10;4.18;;;25.80;32.50;;;;;;5066061;28;20085;-91
2021/03/30 10:39:08;;;;;;;9.13;4.30;;;25.90;32.30;;;;;;5056778;28;20028;-91
2021/03/30 10:41:44;;;;;;;8.70;3.97;;;26.00;32.30;;;;;;5077545;28;20016;-92
2021/03/30 10:44:17;;;;;;;6.32;3.55;;;26.10;32.10;;;;;;5055337;28;20028;-91
2021/03/30 10:46:45;;;;;;;7.65;3.55;;;26.30;31.80;;;;;;5069917;28;20316;-92
2021/03/30 10:49:14;;;;;;;5.43;3.40;;;26.30;31.50;;;;;;5075198;28;20103;-92
2021/03/30 10:51:42;;;;;;;9.48;3.63;;;26.40;31.30;;;;;;5057014;28;20021;-90
2021/03/30 10:54:10;;;;;;;7.40;3.08;;;26.50;31.50;;;;;;5074535;28;20028;-90
2021/03/30 10:56:35;;;;;;;4.72;2.92;;;26.50;31.60;;;;;;5077272;28;20024;-91
2021/03/30 10:59:11;;;;;;;5.90;3.03;;;26.70;30.80;;;;;;5064944;28;20028;-91
2021/03/30 11:04:08;;;;;;;6.75;3.28;;;26.80;30.00;;;;;;5047779;28;20048;-67
2021/03/30 11:06:35;;;;;;;5.35;2.70;;;26.90;29.50;;;;;;5039929;28;20021;-67
2021/03/30 11:09:00;;;;;;;3.90;2.65;;;26.90;29.40;;;;;;5042907;28;20071;-67
2021/03/30 11:11:26;;;;;;;5.35;2.15;;;26.90;29.40;;;;;;5034816;28;20032;-67
2021/03/30 11:13:52;;;;;;;6.82;2.60;;;27.00;29.20;;;;;;5033939;28;20503;-67
2021/03/30 11:16:18;;;;;;;7.97;2.88;;;27.00;29.10;;;;;;5034431;28;20059;-67
2021/03/30 11:18:43;;;;;;;10.00;3.17;;;27.10;29.10;;;;;;5034104;28;20417;-67
2021/03/30 11:21:09;;;;;;;6.70;2.70;;;27.10;29.10;;;;;;5034798;28;20025;-67
2021/03/30 11:23:35;;;;;;;7.82;2.85;;;27.10;29.20;;;;;;5034190;28;20032;-67
2021/03/30 11:26:01;;;;;;;7.20;2.95;;;27.10;28.90;;;;;;5033622;28;20609;-67
2021/03/30 11:28:34;;;;;;;9.88;3.22;;;27.10;28.80;;;;;;5034156;28;20024;-67
2021/03/30 11:31:01;;;;;;;14.82;2.88;;;27.10;28.80;;;;;;5034493;28;20481;-67
2021/03/30 11:33:32;;;;;;;8.02;3.40;;;27.10;28.90;;;;;;5038754;28;20032;-66
2021/03/30 11:36:15;;;;;;;10.23;3.45;;;27.00;28.70;;;;;;5051463;28;20492;-66
2021/03/30 11:38:41;;;;;;;9.55;3.53;;;27.00;28.90;;;;;;5039763;28;20492;-66
2021/03/30 11:41:07;;;;;;;8.70;3.25;;;27.00;29.10;;;;;;5032749;28;20060;-66
2021/03/30 11:43:33;;;;;;;6.10;3.05;;;27.00;28.90;;;;;;5031034;28;20124;-65
2021/03/30 11:45:58;;;;;;;8.85;3.80;;;27.00;28.70;;;;;;5038752;28;20032;-65
2021/03/30 11:48:24;;;;;;;7.18;3.38;;;27.00;28.70;;;;;;5042568;28;20059;-66
2021/03/30 11:50:50;;;;;;;8.13;3.20;;;27.00;28.80;;;;;;5033872;28;20025;-66
2021/03/30 11:53:16;;;;;;;11.75;3.38;;;27.00;28.70;;;;;;5033683;28;20029;-65
2021/03/30 11:55:42;;;;;;;6.47;3.75;;;27.00;28.90;;;;;;5032403;28;20028;-66
2021/03/30 11:58:07;;;;;;;9.13;3.70;;;26.90;28.70;;;;;;5033653;28;20024;-66
2021/03/30 12:00:33;;;;;;;6.60;3.78;;;26.90;28.80;;;;;;5033310;28;20098;-65
2021/03/30 12:02:59;;;;;;;11.68;4.60;;;27.00;29.10;;;;;;5041289;28;20037;-65
2021/03/30 12:05:25;;;;;;;13.48;8.70;;;27.10;29.10;;;;;;5042124;28;20109;-66
2021/03/30 12:07:53;;;;;;;6.25;4.07;;;27.10;29.50;;;;;;5033471;28;20087;-66
2021/03/30 12:10:20;;;;;;;8.07;4.28;;;27.10;29.30;;;;;;5033228;28;20400;-66
2021/03/30 12:12:46;;;;;;;9.63;4.45;;;27.20;29.50;;;;;;5032594;28;20536;-66
2021/03/30 12:15:12;;;;;;;6.53;3.70;;;27.20;29.10;;;;;;5032685;28;20056;-67
2021/03/30 12:17:39;;;;;;;10.20;4.00;;;27.20;29.00;;;;;;5033383;28;20039;-67
2021/03/30 12:20:06;;;;;;;5.82;4.13;;;27.30;28.70;;;;;;5033329;28;20029;-69
2021/03/30 12:22:32;;;;;;;11.07;5.22;;;27.30;29.80;;;;;;5033670;28;20112;-67
2021/03/30 12:24:59;;;;;;;11.48;4.05;;;27.40;30.50;;;;;;5032284;28;20107;-65
2021/03/30 12:27:25;;;;;;;7.78;3.58;;;27.40;29.60;;;;;;5033103;28;20021;-66
2021/03/30 12:29:50;;;;;;;6.38;3.78;;;27.50;29.40;;;;;;5033009;28;20025;-67
2021/03/30 12:32:16;;;;;;;9.63;3.88;;;27.50;29.30;;;;;;5033588;28;20021;-67
2021/03/30 12:34:42;;;;;;;6.82;3.90;;;27.60;29.20;;;;;;5040479;28;20017;-66
2021/03/30 12:37:10;;;;;;;4.82;3.40;;;27.70;29.40;;;;;;5032764;28;20405;-67
2021/03/30 12:39:36;;;;;;;5.10;3.13;;;27.80;28.80;;;;;;5044254;28;20025;-66
2021/03/30 12:42:02;;;;;;;4.93;3.38;;;27.80;28.40;;;;;;5041072;28;20485;-66
2021/03/30 12:44:27;;;;;;;6.68;2.97;;;27.80;28.60;;;;;;5039633;28;20025;-66
2021/03/30 12:46:53;;;;;;;6.22;3.40;;;27.80;28.30;;;;;;5032611;28;20036;-66
2021/03/30 12:49:21;;;;;;;7.22;3.60;;;27.80;28.60;;;;;;5032890;28;20465;-66
2021/03/30 12:51:49;;;;;;;5.72;3.05;;;28.00;28.40;;;;;;5032850;28;20068;-67
2021/03/30 12:54:18;;;;;;;6.25;3.30;;;28.10;28.70;;;;;;5031639;28;20484;-67
2021/03/30 12:56:45;;;;;;;7.07;3.35;;;28.20;28.00;;;;;;5032890;28;20032;-67
2021/03/30 12:59:11;;;;;;;6.97;3.70;;;28.30;28.30;;;;;;5032630;28;20083;-66
2021/03/30 13:01:36;;;;;;;4.97;3.20;;;28.50;28.70;;;;;;5032884;28;20021;-66
2021/03/30 13:04:02;;;;;;;7.13;3.08;;;28.60;28.30;;;;;;5044318;28;20035;-66
2021/03/30 13:06:28;;;;;;;4.72;2.88;;;28.70;27.70;;;;;;5032935;28;20111;-67
2021/03/30 13:08:53;;;;;;;4.85;2.85;;;28.70;27.30;;;;;;5032345;28;20079;-67